createdAt,value
2018-09-09T00:00:43.721Z,3.00
2018-09-09T00:05:46.999Z,2.73
2018-09-09T00:10:50.114Z,3.10
2018-09-09T00:15:53.220Z,3.80
2018-09-09T00:20:56.314Z,4.00
2018-09-09T00:25:59.444Z,2.67
2018-09-09T00:31:02.523Z,3.27
2018-09-09T00:36:05.644Z,2.60
2018-09-09T00:41:08.770Z,3.80
2018-09-09T00:46:11.871Z,3.03
2018-09-09T00:51:20.554Z,3.30
2018-09-09T00:56:23.650Z,3.00
2018-09-09T01:01:26.753Z,3.20
2018-09-09T01:06:29.862Z,3.77
2018-09-09T01:11:32.961Z,2.57
2018-09-09T01:16:36.058Z,3.57
2018-09-09T01:21:39.197Z,3.13
2018-09-09T01:26:42.402Z,3.30
2018-09-09T01:31:45.607Z,3.60
2018-09-09T01:36:48.794Z,2.80
2018-09-09T01:41:51.902Z,3.03
2018-09-09T01:46:54.973Z,3.40
2018-09-09T01:51:58.073Z,3.80
2018-09-09T01:57:01.280Z,4.00
2018-09-09T02:02:04.391Z,3.17
2018-09-09T02:07:07.490Z,3.53
2018-09-09T02:12:10.656Z,3.20
2018-09-09T02:17:13.800Z,2.57
2018-09-09T02:22:16.902Z,2.70
2018-09-09T02:27:20.005Z,3.20
2018-09-09T02:32:23.107Z,3.30
2018-09-09T02:37:26.291Z,3.00
2018-09-09T02:42:29.543Z,2.87
2018-09-09T02:47:32.990Z,3.23
2018-09-09T02:52:36.042Z,3.37
2018-09-09T02:57:39.143Z,3.37
2018-09-09T03:02:42.252Z,3.30
2018-09-09T03:07:45.334Z,3.50
2018-09-09T03:12:48.443Z,2.70
2018-09-09T03:17:51.527Z,2.47
2018-09-09T03:22:54.616Z,3.20
2018-09-09T03:27:57.695Z,4.90
2018-09-09T03:33:00.791Z,3.23
2018-09-09T03:38:03.887Z,3.63
2018-09-09T03:43:06.962Z,3.00
2018-09-09T03:48:10.069Z,3.07
2018-09-09T03:53:13.171Z,3.50
2018-09-09T03:58:16.276Z,3.60
2018-09-09T04:03:19.380Z,2.70
2018-09-09T04:08:22.509Z,2.93
2018-09-09T04:13:25.605Z,2.70
2018-09-09T04:18:28.705Z,3.00
2018-09-09T04:23:31.789Z,3.07
2018-09-09T04:28:34.936Z,2.50
2018-09-09T04:33:38.022Z,2.67
2018-09-09T04:38:41.106Z,3.47
2018-09-09T04:43:44.231Z,3.30
2018-09-09T04:48:47.343Z,2.90
2018-09-09T04:53:50.431Z,3.20
2018-09-09T04:58:53.535Z,3.20
2018-09-09T05:03:56.743Z,3.07
2018-09-09T05:08:59.836Z,3.27
2018-09-09T05:14:02.927Z,2.80
2018-09-09T05:19:06.069Z,3.57
2018-09-09T05:24:09.209Z,3.63
2018-09-09T05:29:12.308Z,2.80
2018-09-09T05:34:15.410Z,3.30
2018-09-09T05:39:18.516Z,2.93
2018-09-09T05:44:21.626Z,2.80
2018-09-09T05:49:24.763Z,2.77
2018-09-09T05:54:27.887Z,3.67
2018-09-09T05:59:30.987Z,3.40
2018-09-09T06:04:34.096Z,2.67
2018-09-09T06:09:37.203Z,3.70
2018-09-09T06:14:40.325Z,3.00
2018-09-09T06:19:43.411Z,3.80
2018-09-09T06:24:46.510Z,3.00
2018-09-09T06:29:49.590Z,3.40
2018-09-09T06:34:52.803Z,4.20
2018-09-09T06:39:55.883Z,3.00
2018-09-09T06:44:58.996Z,4.40
2018-09-09T06:50:02.132Z,4.60
2018-09-09T06:55:05.204Z,2.60
2018-09-09T07:00:08.503Z,3.23
2018-09-09T07:05:11.611Z,2.50
2018-09-09T07:10:14.714Z,3.80
2018-09-09T07:15:17.807Z,2.90
2018-09-09T07:20:20.894Z,4.43
2018-09-09T07:25:24.096Z,4.43
2018-09-09T07:30:27.191Z,3.77
2018-09-09T07:35:30.302Z,3.23
2018-09-09T07:40:34.185Z,3.70
2018-09-09T07:45:37.282Z,3.17
2018-09-09T07:50:40.419Z,3.63
2018-09-09T07:55:43.487Z,4.20
2018-09-09T08:00:46.612Z,3.70
2018-09-09T08:05:49.695Z,3.93
2018-09-09T08:10:52.789Z,3.10
2018-09-09T08:15:55.883Z,3.03
2018-09-09T08:20:58.984Z,4.53
2018-09-09T08:26:02.080Z,3.30
2018-09-09T08:31:05.156Z,3.47
2018-09-09T08:36:08.256Z,2.50
2018-09-09T08:41:11.464Z,3.27
2018-09-09T08:46:14.575Z,3.13
2018-09-09T08:51:17.679Z,2.50
2018-09-09T08:56:20.829Z,2.67
2018-09-09T09:01:24.407Z,2.33
2018-09-09T09:06:27.534Z,2.20
2018-09-09T09:11:30.615Z,2.27
2018-09-09T09:16:33.725Z,2.47
2018-09-09T09:21:37.032Z,2.10
2018-09-09T09:26:40.165Z,2.20
2018-09-09T09:31:43.263Z,2.07
2018-09-09T09:36:46.362Z,2.03
2018-09-09T09:41:49.466Z,2.40
2018-09-09T09:46:52.636Z,2.17
2018-09-09T09:51:55.831Z,1.83
2018-09-09T09:56:58.895Z,1.77
2018-09-09T10:02:01.997Z,1.70
2018-09-09T10:07:05.165Z,1.57
2018-09-09T10:12:08.295Z,1.47
2018-09-09T10:17:11.388Z,1.30
2018-09-09T10:22:14.479Z,2.00
2018-09-09T10:27:17.585Z,1.50
2018-09-09T10:32:20.683Z,1.43
2018-09-09T10:37:23.796Z,2.20
2018-09-09T10:42:26.875Z,1.60
2018-09-09T10:47:29.964Z,2.00
2018-09-09T10:52:33.067Z,1.77
2018-09-09T10:57:36.266Z,1.60
2018-09-09T11:02:39.362Z,1.53
2018-09-09T11:07:42.536Z,1.60
2018-09-09T11:12:45.673Z,1.27
2018-09-09T11:17:48.762Z,1.33
2018-09-09T11:22:51.872Z,1.93
2018-09-09T11:27:54.984Z,2.10
2018-09-09T11:32:58.064Z,1.60
2018-09-09T11:38:01.170Z,1.87
2018-09-09T11:43:04.267Z,1.60
2018-09-09T11:48:07.522Z,2.07
2018-09-09T11:53:10.648Z,1.87
2018-09-09T11:58:13.735Z,2.00
2018-09-09T12:03:17.054Z,1.77
2018-09-09T12:08:20.148Z,1.40
2018-09-09T12:13:23.247Z,2.00
2018-09-09T12:18:26.371Z,1.30
2018-09-09T12:23:29.516Z,1.53
2018-09-09T12:28:32.599Z,2.00
2018-09-09T12:33:35.718Z,2.20
2018-09-09T12:38:38.813Z,1.40
2018-09-09T12:43:47.428Z,1.50
2018-09-09T12:48:56.143Z,1.50
2018-09-09T12:53:59.390Z,1.70
2018-09-09T12:59:02.511Z,1.30
2018-09-09T13:04:05.756Z,1.30
2018-09-09T13:09:09.439Z,1.80
2018-09-09T13:14:12.553Z,1.20
2018-09-09T13:19:15.636Z,1.60
2018-09-09T13:24:18.723Z,1.37
2018-09-09T13:29:21.822Z,1.50
2018-09-09T13:34:24.938Z,1.30
2018-09-09T13:39:28.047Z,1.80
2018-09-09T13:44:31.146Z,1.90
2018-09-09T13:49:34.236Z,1.47
2018-09-09T13:54:37.348Z,1.90
2018-09-09T13:59:40.450Z,1.37
2018-09-09T14:04:43.543Z,1.70
2018-09-09T14:09:46.714Z,1.30
2018-09-09T14:14:49.735Z,1.47
2018-09-09T14:19:52.834Z,1.30
2018-09-09T14:24:56.158Z,1.50
2018-09-09T14:29:59.267Z,1.80
2018-09-09T14:35:02.384Z,1.33
2018-09-09T14:40:05.688Z,1.80
2018-09-09T14:45:08.852Z,1.93
2018-09-09T14:50:11.924Z,1.77
2018-09-09T14:55:15.021Z,2.10
2018-09-09T15:00:18.195Z,2.00
2018-09-09T15:05:21.298Z,1.87
2018-09-09T15:10:24.399Z,1.80
2018-09-09T15:15:27.543Z,2.00
2018-09-09T15:20:30.867Z,2.30
2018-09-09T15:25:33.956Z,2.13
2018-09-09T15:30:37.038Z,2.10
2018-09-09T15:35:40.148Z,2.00
2018-09-09T15:40:43.227Z,2.30
2018-09-09T15:45:46.355Z,1.60
2018-09-09T15:50:49.452Z,1.43
2018-09-09T15:55:52.552Z,1.63
2018-09-09T16:00:55.650Z,1.70
2018-09-09T16:05:58.772Z,1.67
2018-09-09T16:11:01.907Z,1.77
2018-09-09T16:16:05.021Z,1.30
2018-09-09T16:21:08.134Z,2.10
2018-09-09T16:26:11.261Z,1.60
2018-09-09T16:31:14.368Z,1.40
2018-09-09T16:36:17.456Z,1.13
2018-09-09T16:41:20.564Z,1.30
2018-09-09T16:46:23.694Z,1.40
2018-09-09T16:51:26.791Z,1.63
2018-09-09T16:56:29.907Z,1.23
2018-09-09T17:01:33.003Z,1.27
2018-09-09T17:06:36.148Z,1.77
2018-09-09T17:11:39.800Z,1.50
2018-09-09T17:16:42.940Z,1.40
2018-09-09T17:21:46.051Z,1.50
2018-09-09T17:26:49.177Z,1.50
2018-09-09T17:31:52.288Z,1.10
2018-09-09T17:36:55.371Z,1.90
2018-09-09T17:41:58.471Z,1.80
2018-09-09T17:47:01.603Z,1.50
2018-09-09T17:52:04.763Z,1.50
2018-09-09T17:57:07.880Z,2.10
2018-09-09T18:02:11.003Z,1.83
2018-09-09T18:07:14.210Z,1.47
2018-09-09T18:12:17.270Z,1.70
2018-09-09T18:17:20.399Z,2.43
2018-09-09T18:22:23.503Z,1.40
2018-09-09T18:27:26.807Z,2.83
2018-09-09T18:32:29.904Z,2.50
2018-09-09T18:37:33.015Z,1.70
2018-09-09T18:42:36.151Z,1.60
2018-09-09T18:47:39.272Z,1.77
2018-09-09T18:52:42.383Z,1.60
2018-09-09T18:57:45.516Z,1.50
2018-09-09T19:02:48.695Z,1.70
2018-09-09T19:07:51.800Z,1.23
2018-09-09T19:12:54.904Z,2.27
2018-09-09T19:17:58.019Z,1.97
2018-09-09T19:23:01.147Z,1.77
2018-09-09T19:28:04.328Z,1.73
2018-09-09T19:33:07.707Z,1.70
2018-09-09T19:38:10.816Z,1.60
2018-09-09T19:43:13.922Z,1.60
2018-09-09T19:48:17.012Z,2.30
2018-09-09T19:53:20.112Z,2.20
2018-09-09T19:58:23.222Z,1.97
2018-09-09T20:03:26.306Z,1.70
2018-09-09T20:08:29.407Z,1.87
2018-09-09T20:13:32.527Z,2.10
2018-09-09T20:18:35.655Z,1.93
2018-09-09T20:23:38.862Z,2.10
2018-09-09T20:28:42.009Z,2.10
2018-09-09T20:33:45.103Z,2.30
2018-09-09T20:38:48.324Z,2.50
2018-09-09T20:43:51.296Z,2.43
2018-09-09T20:48:54.387Z,2.70
2018-09-09T20:53:58.275Z,2.70
2018-09-09T20:59:01.457Z,2.67
2018-09-09T21:04:04.592Z,2.77
2018-09-09T21:09:08.673Z,2.40
2018-09-09T21:14:11.780Z,2.10
2018-09-09T21:19:14.972Z,2.23
2018-09-09T21:24:18.098Z,2.00
2018-09-09T21:29:21.278Z,2.30
2018-09-09T21:34:24.468Z,3.70
2018-09-09T21:39:27.570Z,2.70
2018-09-09T21:44:30.679Z,2.00
2018-09-09T21:49:33.759Z,1.80
2018-09-09T21:54:36.841Z,2.50
2018-09-09T21:59:40.019Z,2.30
2018-09-09T22:04:43.109Z,2.27
2018-09-09T22:09:46.219Z,2.80
2018-09-09T22:14:49.332Z,2.10
2018-09-09T22:19:52.542Z,2.70
2018-09-09T22:24:55.647Z,2.93
2018-09-09T22:29:58.804Z,2.80
2018-09-09T22:35:01.887Z,2.67
2018-09-09T22:40:04.987Z,2.67
2018-09-09T22:45:08.500Z,2.70
2018-09-09T22:50:11.589Z,2.47
2018-09-09T22:55:14.683Z,2.23
2018-09-09T23:00:17.794Z,3.37
2018-09-09T23:05:21.063Z,2.60
2018-09-09T23:10:24.161Z,2.60
2018-09-09T23:15:28.096Z,2.57
2018-09-09T23:20:31.199Z,2.63
2018-09-09T23:25:34.294Z,2.93
2018-09-09T23:30:37.383Z,2.87
2018-09-09T23:35:40.482Z,2.23
2018-09-09T23:40:43.586Z,2.50
2018-09-09T23:45:46.706Z,3.43
2018-09-09T23:50:49.780Z,3.20
2018-09-09T23:55:52.910Z,2.60
